Logo AVAMET
Benvolgut visitant, si us plau, ingressa Recuperar contrasenya

Canet lo Roig

Dades diàries. Acumulats / Últims 30 dies disponibles

Data Temperatura (°C) Humitat rel. (%) Pressió rel. (hPa) Vent (km/h) Precipitació
Mínima Mitjana Màxima Amplitud
tèrmica
Mínima Mitjana Màxima Mínima Mitjana Màxima Predom. Mitjana Ràfega
màxima
Total
(mm)
Índex-n
Mínima Mitjana Màxima Mínima Mitjana Màxima n
0 a 1
P0 max
mm 5'
Dades mensuals acumulades fins l'últim dia disponible
10/2019 12,7 15,7 18,3 20,0 21,3 24,7 27,1 14,4 0 68 95 1.009 1.017 1.024   7,1 80,5 3,8
Dades anuals acumulades fins l'últim dia disponible
2019 1,3 12,8 23,9 17,5 8,5 22,6 39,7 38,4 0 62 96 989 1.017 1.036   7,6 115,9 190,8
Últims 30 dies disponibles
15-10-2019 12,7     16,5     21,3 8,6 28 49 89 1.012 1.017 1.021 O 12,0 69,2 0,2
14-10-2019 17,1     20,1     23,2 6,1 68 85 94 1.011 1.013 1.016 ESE 2,1 22,5 3,4 0,51 1,00
13-10-2019 16,7     19,9     24,2 7,5 72 86 93 1.017 1.018 1.019 ESE 3,1 27,4 0,0
12-10-2019 16,2     19,6     23,3 7,1 70 86 93 1.019 1.020 1.021 SSE 4,7 27,4 0,0
11-10-2019 14,2     19,2     25,8 11,6 59 78 88 1.020 1.022 1.023 SSW 7,4 32,2 0,0
10-10-2019 15,4     18,8     21,4 6,0 50 62 86 1.021 1.022 1.024 ENE 4,8 25,7 0,0
09-10-2019 16,7     20,1     24,6 7,9 56 79 88 1.017 1.018 1.021 ESE 3,2 22,5 0,0
08-10-2019 13,1     19,9     26,1 13,0 42 65 84 1.017 1.019 1.021 WSW 7,1 30,6 0,0
07-10-2019 17,6     21,1     26,6 9,0 27 47 73 1.015 1.017 1.019 NW 11,7 80,5 0,0
06-10-2019 14,6     20,4     27,0 12,4 41 72 90 1.016 1.018 1.020 SE 2,9 29,0 0,0
05-10-2019 17,4     20,7     24,4 7,0 0 64 83 1.015 1.016 1.018 NNW 4,2 38,6 0,0
04-10-2019 15,7     21,3     25,5 9,8 36 58 77 1.015 1.016 1.018 SE 3,9 24,1 0,0
03-10-2019 16,1     19,6     26,3 10,2 29 55 70 1.016 1.017 1.018 NNW 13,2 66,0 0,0
02-10-2019 18,3     21,2     24,4 6,1 41 53 65 1.011 1.013 1.017 NNW 24,5 66,0 0,0
01-10-2019 14,3     21,6     27,1 12,8 47 78 95 1.009 1.012 1.016 E 2,4 30,6 0,2
30-09-2019 16,4     21,1     25,7 9,3 68 82 95 1.016 1.017 1.019 SSE 3,3 25,7 0,0
29-09-2019 14,8     21,4     27,5 12,7 59 82 96 1.016 1.018 1.020 ENE 3,1 20,9 0,2
28-09-2019 18,1     21,4     25,5 7,4 68 81 89 1.019 1.020 1.022 SE 3,5 20,9 0,0
27-09-2019 17,2     21,8     27,4 10,2 67 80 90 1.017 1.018 1.019 WSW 2,7 22,5 0,0
26-09-2019 15,1     21,3     27,7 12,6 45 65 91 1.018 1.019 1.020 WSW 5,0 27,4 0,0
25-09-2019 18,4     22,6     26,2 7,8 43 62 81 1.014 1.015 1.018 NNW 7,1 41,8 0,0
24-09-2019 15,3     22,4     29,3 14,0 42 67 89 1.014 1.016 1.019 SW 3,1 20,9 0,0
23-09-2019 14,8     20,6     24,4 9,6 53 67 88 1.016 1.019 1.021 NNW 5,0 22,5 0,0
22-09-2019 18,3     21,7     26,8 8,5 60 81 95 1.012 1.013 1.016 NNW 3,5 35,4 1,0
21-09-2019 16,8     20,8     26,6 9,8 64 82 93 1.012 1.014 1.017 ENE 4,3 33,8 1,4
20-09-2019 18,8     20,3     22,7 3,9 84 88 91 1.018 1.019 1.020 ENE 3,9 25,7 0,8
19-09-2019 17,6     21,2     25,9 8,3 63 76 91 1.017 1.018 1.020 E 2,7 25,7 0,0
18-09-2019 17,2     23,3     28,9 11,7 43 61 76 1.014 1.016 1.018 ENE 4,2 25,7 0,2
17-09-2019 16,6     22,6     29,4 12,8 38 61 79 1.015 1.017 1.019 SE 2,4 19,3 0,0
16-09-2019 19,6     22,7     27,0 7,4 42 69 92 1.018 1.020 1.021 ENE 5,6 30,6 0,0
Últims 13 mesos disponibles
09/2019 13,6 16,9 21,3 21,4 20,5 26,1 29,9 16,3 46 69 88 1.010 1.019 1.027 ENE 6,4 75,6 41,8
08/2019 16,7 19,5 23,9 24,4 23,0 29,4 34,9 18,2 49 69 87 1.011 1.016 1.021 SE 5,7 48,3 50,4
07/2019 18,2 19,9 22,7 25,4 26,2 30,9 36,1 17,9 38 60 74 1.006 1.014 1.021 SE 6,5 61,2 12,8
06/2019 9,9 15,8 21,6 21,4 19,1 26,8 39,7 29,8 24 58 77 1.008 1.015 1.022 ENE 6,6 66,0 8,6
05/2019 8,2 12,0 15,6 16,8 14,5 22,0 26,7 18,5 35 60 85 1.004 1.015 1.024 NW 8,9 78,9 14,4
04/2019 5,5 9,2 11,8 13,3 13,9 18,1 24,9 19,4 42 65 84 998 1.013 1.025 ENE 8,8 69,2 40,6
03/2019 4,6 8,2 13,6 13,3 11,4 18,8 24,6 20,0 39 54 86 1.010 1.023 1.029 NW 6,9 78,9 9,2
02/2019 1,3 5,4 11,5 10,6 8,5 16,5 23,7 22,4 35 64 83 991 1.024 1.034 NNW 6,4 115,9 1,0
01/2019 1,8 5,8 12,1 9,5 8,9 13,7 20,8 19,0 21 58 87 1.000 1.018 1.030 NW 12,7 95,0 8,2
12/2018 3,6 7,5 12,5 11,7 10,7 16,6 21,2 17,6 47 70 87 1.008 1.025 1.030 NW 5,2 93,3 10,4
11/2018 3,9 8,8 14,6 12,2 12,0 16,1 20,5 16,6 51 76 95 1.001 1.015 1.024 ENE 5,6 99,8 172,8
10/2018 6,4 12,4 15,4 16,5 11,0 21,1 26,2 19,8 39 70 95 997 1.014 1.026 NW 7,5 86,9 340,6
09/2018 13,5 17,8 21,6 22,1 21,7 27,2 31,2 17,7 50 73 87 1.013 1.019 1.030 ENE 4,5 90,1 74,6
Tots els anys disponibles
2018 -0,8 12,2 24,9 16,5 5,6 21,2 35,9 36,7 NW 7,4 101,4 875,4
2017
Temperatura (°C)
Humitat relativa (%)
Velocitat del vent i ràfega màxima (km/h)
Direcció del vent (°)
Pressió (hPa)
Precipitació (mm)
Nota sobre les dades: s'avisa a l'usuari de la provisionalitat i no oficialitat d'aquestes dades
Logo AVAMET blanc
Web allotjada a Sollutia
Llicència de Creative CommonsLa web d'AVAMET i els seus continguts estan subjectes a una llicència de
Reconeixement - No Comercial - Compartir igual
Últimes estacions: Villena - Villa Ventín (Soci), Benissa - Convent (Soci), Xàbia Fontanella (Soci), Castielfabib (Soci), Sant Mateu (Soci), Vallada (Soci), Agullent (Soci), - - -